createdAt,value
2023-02-18T00:01:11.570Z,5.27
2023-02-18T00:03:38.683Z,5.31
2023-02-18T00:06:23.496Z,5.27
2023-02-18T00:08:50.659Z,5.29
2023-02-18T00:11:19.295Z,5.29
2023-02-18T00:14:13.517Z,5.28
2023-02-18T00:16:40.816Z,5.24
2023-02-18T00:19:11.182Z,5.18
2023-02-18T00:21:38.453Z,5.19
2023-02-18T00:24:06.000Z,5.17
2023-02-18T00:26:32.957Z,5.12
2023-02-18T00:28:59.551Z,5.11
2023-02-18T00:31:32.646Z,5.07
2023-02-18T00:34:00.147Z,5.06
2023-02-18T00:36:27.783Z,5.01
2023-02-18T00:38:57.172Z,5.00
2023-02-18T00:41:25.561Z,4.98
2023-02-18T00:43:52.580Z,4.96
2023-02-18T00:46:19.186Z,4.93
2023-02-18T00:48:45.799Z,4.93
2023-02-18T00:51:12.626Z,4.84
2023-02-18T00:53:40.366Z,4.70
2023-02-18T00:56:08.228Z,4.54
2023-02-18T00:58:36.351Z,4.52
2023-02-18T01:01:07.227Z,4.57
2023-02-18T01:03:34.590Z,4.50
2023-02-18T01:06:01.262Z,4.42
2023-02-18T01:08:27.888Z,4.45
2023-02-18T01:10:57.201Z,4.45
2023-02-18T01:13:24.023Z,4.37
2023-02-18T01:15:50.796Z,4.36
2023-02-18T01:18:18.023Z,4.36
2023-02-18T01:20:45.683Z,4.38
2023-02-18T01:23:13.342Z,4.41
2023-02-18T01:25:40.378Z,4.36
2023-02-18T01:28:09.196Z,4.39
2023-02-18T01:30:35.841Z,4.22
2023-02-18T01:33:02.466Z,4.31
2023-02-18T01:35:29.570Z,4.10
2023-02-18T01:37:56.288Z,3.98
2023-02-18T01:40:26.247Z,4.02
2023-02-18T01:42:52.871Z,4.02
2023-02-18T01:45:34.717Z,3.98
2023-02-18T01:48:07.389Z,3.79
2023-02-18T01:50:36.075Z,3.49
2023-02-18T01:53:03.507Z,3.45
2023-02-18T01:55:30.196Z,3.51
2023-02-18T01:57:56.779Z,3.58
2023-02-18T02:00:23.725Z,3.62
2023-02-18T02:02:52.460Z,3.61
2023-02-18T02:05:20.509Z,3.65
2023-02-18T02:07:50.475Z,3.70
2023-02-18T02:10:18.073Z,3.71
2023-02-18T02:13:12.042Z,3.75
2023-02-18T02:15:58.812Z,3.85
2023-02-18T02:18:40.971Z,3.88
2023-02-18T02:21:07.503Z,3.90
2023-02-18T02:24:07.628Z,3.92
2023-02-18T02:27:02.440Z,3.91
2023-02-18T02:29:35.093Z,3.78
2023-02-18T02:32:01.629Z,3.66
2023-02-18T02:34:47.421Z,3.58
2023-02-18T02:37:32.762Z,3.58
2023-02-18T02:40:08.210Z,3.54
2023-02-18T02:42:41.455Z,3.49
2023-02-18T02:45:33.459Z,3.32
2023-02-18T02:48:38.340Z,3.47
2023-02-18T02:51:25.094Z,3.35
2023-02-18T02:53:51.635Z,3.30
2023-02-18T02:56:22.080Z,3.30
2023-02-18T02:59:01.755Z,3.02
2023-02-18T03:02:05.147Z,2.97
2023-02-18T03:05:02.620Z,2.96
2023-02-18T03:08:01.533Z,3.05
2023-02-18T03:10:40.516Z,3.05
2023-02-18T03:13:51.516Z,2.98
2023-02-18T03:16:33.019Z,2.96
2023-02-18T03:19:14.662Z,3.02
2023-02-18T03:22:00.895Z,3.01
2023-02-18T03:24:32.714Z,3.02
2023-02-18T03:27:16.263Z,3.10
2023-02-18T03:29:46.508Z,3.19
2023-02-18T03:32:18.392Z,3.22
2023-02-18T03:34:51.315Z,3.22
2023-02-18T03:37:18.396Z,3.09
2023-02-18T03:39:49.010Z,3.10
2023-02-18T03:42:18.686Z,3.05
2023-02-18T03:44:45.405Z,3.04
2023-02-18T03:47:12.865Z,3.10
2023-02-18T03:49:39.439Z,3.18
2023-02-18T03:52:06.020Z,3.04
2023-02-18T03:54:32.601Z,3.04
2023-02-18T03:56:59.216Z,3.11
2023-02-18T03:59:25.812Z,3.15
2023-02-18T04:01:52.411Z,3.15
2023-02-18T04:04:19.054Z,3.03
2023-02-18T04:06:45.741Z,2.92
2023-02-18T04:09:12.362Z,3.00
2023-02-18T04:11:40.458Z,3.02
2023-02-18T04:14:07.693Z,3.13
2023-02-18T04:16:34.383Z,2.98
2023-02-18T04:19:01.025Z,3.07
2023-02-18T04:21:27.592Z,3.12
2023-02-18T04:23:54.193Z,3.13
2023-02-18T04:26:20.787Z,3.18
2023-02-18T04:28:47.358Z,3.25
2023-02-18T04:31:14.141Z,3.22
2023-02-18T04:33:40.993Z,3.26
2023-02-18T04:36:08.234Z,3.29
2023-02-18T04:38:34.958Z,3.36
2023-02-18T04:41:01.787Z,3.33
2023-02-18T04:43:28.475Z,3.35
2023-02-18T04:45:55.067Z,3.36
2023-02-18T04:48:21.690Z,3.37
2023-02-18T04:50:48.363Z,3.45
2023-02-18T04:53:14.930Z,3.41
2023-02-18T04:55:41.534Z,3.39
2023-02-18T04:58:10.063Z,3.40
2023-02-18T05:00:36.730Z,3.32
2023-02-18T05:03:03.391Z,3.34
2023-02-18T05:05:30.035Z,3.36
2023-02-18T05:07:56.621Z,3.34
2023-02-18T05:10:23.195Z,3.26
2023-02-18T05:12:49.893Z,3.26
2023-02-18T05:15:16.631Z,3.29
2023-02-18T05:17:43.243Z,3.34
2023-02-18T05:20:10.583Z,3.31
2023-02-18T05:22:38.160Z,3.17
2023-02-18T05:25:05.648Z,3.21
2023-02-18T05:27:32.498Z,3.22
2023-02-18T05:29:59.061Z,3.21
2023-02-18T05:32:26.626Z,3.27
2023-02-18T05:34:53.272Z,3.32
2023-02-18T05:37:19.893Z,3.36
2023-02-18T05:39:46.738Z,3.38
2023-02-18T05:42:13.328Z,3.44
2023-02-18T05:44:40.033Z,3.47
2023-02-18T05:47:11.419Z,3.44
2023-02-18T05:49:39.624Z,3.44
2023-02-18T05:52:07.147Z,3.36
2023-02-18T05:54:34.298Z,3.41
2023-02-18T05:57:01.164Z,3.49
2023-02-18T05:59:27.931Z,3.52
2023-02-18T06:01:54.947Z,3.51
2023-02-18T06:04:21.534Z,3.54
2023-02-18T06:06:48.180Z,3.57
2023-02-18T06:09:15.036Z,3.60
2023-02-18T06:11:41.634Z,3.65
2023-02-18T06:14:08.290Z,3.74
2023-02-18T06:16:36.136Z,3.81
2023-02-18T06:19:02.723Z,3.85
2023-02-18T06:21:29.557Z,3.88
2023-02-18T06:23:57.627Z,3.80
2023-02-18T06:26:24.599Z,3.59
2023-02-18T06:28:51.226Z,3.48
2023-02-18T06:31:17.942Z,3.56
2023-02-18T06:33:44.635Z,3.58
2023-02-18T06:36:12.610Z,3.60
2023-02-18T06:38:41.601Z,3.67
2023-02-18T06:41:08.672Z,3.77
2023-02-18T06:43:35.669Z,3.87
2023-02-18T06:46:16.866Z,3.96
2023-02-18T06:48:43.494Z,4.03
2023-02-18T06:51:10.149Z,4.06
2023-02-18T06:53:36.864Z,4.15
2023-02-18T06:56:03.853Z,4.17
2023-02-18T06:58:30.507Z,4.26
2023-02-18T07:00:57.110Z,4.28
2023-02-18T07:03:23.846Z,4.34
2023-02-18T07:05:50.466Z,4.36
2023-02-18T07:08:17.835Z,4.46
2023-02-18T07:10:44.657Z,4.47
2023-02-18T07:13:11.278Z,4.51
2023-02-18T07:15:38.078Z,4.58
2023-02-18T07:18:04.881Z,4.53
2023-02-18T07:20:31.468Z,4.66
2023-02-18T07:22:58.354Z,4.73
2023-02-18T07:25:25.609Z,4.76
2023-02-18T07:27:52.364Z,4.75
2023-02-18T07:30:20.442Z,4.75
2023-02-18T07:32:47.142Z,4.81
2023-02-18T07:35:15.438Z,4.87
2023-02-18T07:37:49.623Z,4.97
2023-02-18T07:40:20.567Z,5.03
2023-02-18T07:42:47.732Z,5.13
2023-02-18T07:45:15.234Z,5.07
2023-02-18T07:47:42.588Z,5.03
2023-02-18T07:50:10.035Z,5.06
2023-02-18T07:52:36.599Z,5.08
2023-02-18T07:55:03.732Z,5.07
2023-02-18T07:57:30.316Z,5.09
2023-02-18T07:59:56.854Z,5.14
2023-02-18T08:02:24.554Z,5.21
2023-02-18T08:04:51.433Z,5.11
2023-02-18T08:07:20.566Z,5.13
2023-02-18T08:09:47.062Z,5.19
2023-02-18T08:12:13.726Z,5.21
2023-02-18T08:14:41.665Z,5.23
2023-02-18T08:17:08.257Z,5.35
2023-02-18T08:19:34.796Z,5.38
2023-02-18T08:22:03.181Z,5.42
2023-02-18T08:24:29.874Z,5.49
2023-02-18T08:27:00.922Z,5.53
2023-02-18T08:29:28.534Z,5.58
2023-02-18T08:31:57.302Z,5.53
2023-02-18T08:34:24.008Z,5.56
2023-02-18T08:36:50.572Z,5.52
2023-02-18T08:39:17.172Z,5.48
2023-02-18T08:41:43.807Z,5.50
2023-02-18T08:44:10.401Z,5.48
2023-02-18T08:46:37.210Z,5.56
2023-02-18T08:49:05.034Z,5.70
2023-02-18T08:51:31.733Z,5.75
2023-02-18T08:53:58.715Z,5.75
2023-02-18T08:56:27.463Z,5.79
2023-02-18T08:58:54.050Z,5.80
2023-02-18T09:01:20.938Z,5.84
2023-02-18T09:03:48.369Z,5.86
2023-02-18T09:06:15.106Z,5.90
2023-02-18T09:08:42.157Z,5.93
2023-02-18T09:11:11.098Z,5.86
2023-02-18T09:13:37.686Z,5.97
2023-02-18T09:16:07.335Z,6.14
2023-02-18T09:18:37.630Z,6.21
2023-02-18T09:21:06.839Z,6.16
2023-02-18T09:23:34.337Z,6.31
2023-02-18T09:26:05.319Z,6.40
2023-02-18T09:28:31.998Z,6.50
2023-02-18T09:31:00.397Z,6.57
2023-02-18T09:33:27.098Z,6.61
2023-02-18T09:35:53.683Z,6.49
2023-02-18T09:38:20.438Z,6.54
2023-02-18T09:40:53.755Z,6.69
2023-02-18T09:43:31.458Z,6.50
2023-02-18T09:46:00.371Z,6.37
2023-02-18T09:48:31.529Z,6.44
2023-02-18T09:50:58.890Z,6.53
2023-02-18T09:53:25.788Z,6.69
2023-02-18T09:55:56.243Z,6.74
2023-02-18T09:58:31.683Z,6.71
2023-02-18T10:01:11.757Z,6.63
2023-02-18T10:03:40.554Z,6.75
2023-02-18T10:06:22.536Z,6.81
2023-02-18T10:08:52.006Z,6.91
2023-02-18T10:11:36.802Z,6.90
2023-02-18T10:14:10.372Z,7.02
2023-02-18T10:16:37.021Z,7.01
2023-02-18T10:19:24.073Z,7.17
2023-02-18T10:21:52.478Z,7.29
2023-02-18T10:24:31.014Z,7.43
2023-02-18T10:26:59.241Z,7.24
2023-02-18T10:29:34.135Z,7.40
2023-02-18T10:32:26.931Z,7.40
2023-02-18T10:34:53.657Z,7.64
2023-02-18T10:37:59.129Z,7.77
2023-02-18T10:40:38.019Z,7.72
2023-02-18T10:43:10.195Z,7.55
2023-02-18T10:45:43.555Z,7.49
2023-02-18T10:48:36.891Z,7.48
2023-02-18T10:51:15.047Z,7.52
2023-02-18T10:53:43.974Z,7.83
2023-02-18T10:56:35.638Z,7.89
2023-02-18T10:59:11.308Z,8.01
2023-02-18T11:01:38.451Z,8.08
2023-02-18T11:04:21.684Z,8.18
2023-02-18T11:06:51.388Z,8.16
2023-02-18T11:09:30.003Z,8.19
2023-02-18T11:12:08.833Z,8.10
2023-02-18T11:14:43.305Z,8.18
2023-02-18T11:17:18.105Z,8.29
2023-02-18T11:19:53.196Z,8.48
2023-02-18T11:22:33.023Z,8.48
2023-02-18T11:25:02.574Z,8.36
2023-02-18T11:27:43.856Z,8.32
2023-02-18T11:30:22.578Z,8.18
2023-02-18T11:32:57.064Z,8.32
2023-02-18T11:35:27.070Z,8.32
2023-02-18T11:37:55.355Z,8.53
2023-02-18T11:40:26.384Z,8.59
2023-02-18T11:43:13.514Z,8.57
2023-02-18T11:45:40.551Z,8.53
2023-02-18T11:48:18.763Z,8.74
2023-02-18T11:50:50.235Z,8.68
2023-02-18T11:53:30.441Z,8.60
2023-02-18T11:56:00.659Z,8.58
2023-02-18T11:58:31.447Z,8.84
2023-02-18T12:01:03.469Z,8.88
2023-02-18T12:03:48.911Z,9.20
2023-02-18T12:06:24.792Z,8.92
2023-02-18T12:09:01.421Z,9.03
2023-02-18T12:11:38.841Z,9.31
2023-02-18T12:14:12.754Z,9.38
2023-02-18T12:16:50.668Z,9.57
2023-02-18T12:19:38.914Z,9.77
2023-02-18T12:22:23.560Z,10.23
2023-02-18T12:25:02.223Z,10.54
2023-02-18T12:27:51.980Z,10.61
2023-02-18T12:30:55.665Z,10.47
2023-02-18T12:34:03.951Z,10.21
2023-02-18T12:37:08.024Z,10.72
2023-02-18T12:40:01.125Z,10.85
2023-02-18T12:42:57.615Z,10.87
2023-02-18T12:45:36.318Z,11.13
2023-02-18T12:48:27.704Z,10.82
2023-02-18T12:51:13.016Z,10.64
2023-02-18T12:53:58.109Z,10.81
2023-02-18T12:56:52.827Z,11.10
2023-02-18T13:00:00.628Z,10.71
2023-02-18T13:02:43.256Z,10.71
2023-02-18T13:05:38.488Z,10.85
2023-02-18T13:08:18.946Z,10.59
2023-02-18T13:11:09.745Z,11.05
2023-02-18T13:14:17.152Z,10.99
2023-02-18T13:16:49.778Z,11.05
2023-02-18T13:19:31.817Z,11.15
2023-02-18T13:22:02.283Z,11.02
2023-02-18T13:24:37.831Z,11.43
2023-02-18T13:27:39.750Z,11.59
2023-02-18T13:30:36.451Z,11.79
2023-02-18T13:33:18.532Z,11.97
2023-02-18T13:36:03.407Z,12.10
2023-02-18T13:38:41.750Z,12.48
2023-02-18T13:41:09.016Z,11.88
2023-02-18T13:43:36.748Z,11.61
2023-02-18T13:46:04.819Z,11.85
2023-02-18T13:48:34.121Z,12.13
2023-02-18T13:51:04.281Z,12.34
2023-02-18T13:53:42.785Z,11.98
2023-02-18T13:56:20.731Z,12.17
2023-02-18T13:59:00.745Z,12.27
2023-02-18T14:01:44.196Z,12.20
2023-02-18T14:04:42.234Z,12.45
2023-02-18T14:07:39.381Z,11.84
2023-02-18T14:10:20.627Z,11.82
2023-02-18T14:12:56.488Z,12.14
2023-02-18T14:15:23.121Z,12.39
2023-02-18T14:18:14.266Z,11.86
2023-02-18T14:20:40.933Z,11.81
2023-02-18T14:23:19.512Z,11.91
2023-02-18T14:26:04.791Z,12.12
2023-02-18T14:28:34.387Z,12.38
2023-02-18T14:31:13.583Z,12.05
2023-02-18T14:33:53.062Z,12.21
2023-02-18T14:36:36.455Z,12.34
2023-02-18T14:39:14.718Z,12.24
2023-02-18T14:42:22.652Z,12.01
2023-02-18T14:45:04.551Z,11.87
2023-02-18T14:47:46.285Z,11.67
2023-02-18T14:50:16.847Z,11.44
2023-02-18T14:52:47.959Z,11.42
2023-02-18T14:55:32.807Z,11.54
2023-02-18T14:58:01.463Z,11.50
2023-02-18T15:00:32.196Z,11.70
2023-02-18T15:03:02.254Z,11.57
2023-02-18T15:05:31.983Z,11.52
2023-02-18T15:08:00.096Z,11.37
2023-02-18T15:10:37.286Z,11.42
2023-02-18T15:13:08.314Z,11.38
2023-02-18T15:15:36.186Z,11.37
2023-02-18T15:18:04.466Z,11.50
2023-02-18T15:20:35.481Z,11.50
2023-02-18T15:23:02.361Z,11.40
2023-02-18T15:25:29.108Z,11.24
2023-02-18T15:27:55.847Z,11.21
2023-02-18T15:30:29.923Z,11.16
2023-02-18T15:33:01.339Z,11.14
2023-02-18T15:35:31.657Z,11.11
2023-02-18T15:38:00.327Z,11.13
2023-02-18T15:40:38.252Z,11.33
2023-02-18T15:43:06.776Z,11.30
2023-02-18T15:45:37.358Z,11.35
2023-02-18T15:48:05.977Z,11.06
2023-02-18T15:50:36.579Z,11.06
2023-02-18T15:53:09.377Z,11.17
2023-02-18T15:55:40.521Z,11.11
2023-02-18T15:58:31.236Z,11.07
2023-02-18T16:00:59.964Z,10.91
2023-02-18T16:03:45.484Z,10.91
2023-02-18T16:06:22.250Z,10.93
2023-02-18T16:09:09.836Z,10.90
2023-02-18T16:11:40.224Z,10.84
2023-02-18T16:14:07.396Z,10.79
2023-02-18T16:16:37.241Z,10.77
2023-02-18T16:19:04.529Z,10.60
2023-02-18T16:21:40.037Z,10.65
2023-02-18T16:24:27.856Z,10.64
2023-02-18T16:26:57.736Z,10.44
2023-02-18T16:29:26.280Z,10.31
2023-02-18T16:31:53.102Z,10.47
2023-02-18T16:34:19.923Z,10.41
2023-02-18T16:37:05.000Z,10.34
2023-02-18T16:39:34.689Z,10.22
2023-02-18T16:42:01.749Z,10.20
2023-02-18T16:44:28.531Z,10.05
2023-02-18T16:46:55.301Z,10.08
2023-02-18T16:49:21.930Z,10.02
2023-02-18T16:51:49.011Z,9.75
2023-02-18T16:54:16.587Z,9.87
2023-02-18T16:56:43.321Z,9.83
2023-02-18T16:59:09.999Z,9.60
2023-02-18T17:01:41.584Z,9.66
2023-02-18T17:04:12.870Z,9.70
2023-02-18T17:06:39.571Z,9.51
2023-02-18T17:09:17.035Z,9.61
2023-02-18T17:11:56.515Z,9.51
2023-02-18T17:14:23.817Z,9.52
2023-02-18T17:16:53.619Z,9.47
2023-02-18T17:19:21.398Z,9.40
2023-02-18T17:21:49.344Z,9.23
2023-02-18T17:24:18.061Z,9.29
2023-02-18T17:26:44.963Z,9.24
2023-02-18T17:29:11.742Z,9.13
2023-02-18T17:31:44.416Z,9.11
2023-02-18T17:34:17.954Z,9.12
2023-02-18T17:36:45.661Z,8.96
2023-02-18T17:39:15.168Z,8.98
2023-02-18T17:41:42.681Z,9.00
2023-02-18T17:44:21.809Z,8.92
2023-02-18T17:46:51.166Z,8.86
2023-02-18T17:49:18.546Z,8.82
2023-02-18T17:51:45.195Z,8.78
2023-02-18T17:54:22.706Z,8.71
2023-02-18T17:56:49.408Z,8.72
2023-02-18T17:59:16.223Z,8.67
2023-02-18T18:01:44.116Z,8.61
2023-02-18T18:04:16.506Z,8.55
2023-02-18T18:06:44.040Z,8.47
2023-02-18T18:09:10.731Z,8.39
2023-02-18T18:11:38.168Z,8.22
2023-02-18T18:14:05.085Z,8.22
2023-02-18T18:16:31.872Z,8.05
2023-02-18T18:18:58.499Z,7.99
2023-02-18T18:21:35.609Z,7.93
2023-02-18T18:24:02.941Z,7.87
2023-02-18T18:26:30.160Z,7.77
2023-02-18T18:28:56.859Z,7.69
2023-02-18T18:31:23.587Z,7.60
2023-02-18T18:33:53.171Z,7.56
2023-02-18T18:36:21.390Z,7.51
2023-02-18T18:38:47.975Z,7.44
2023-02-18T18:41:17.927Z,7.40
2023-02-18T18:43:44.718Z,7.34
2023-02-18T18:46:11.396Z,7.31
2023-02-18T18:48:38.341Z,7.31
2023-02-18T18:51:05.583Z,7.27
2023-02-18T18:53:34.577Z,7.22
2023-02-18T18:56:04.828Z,7.16
2023-02-18T18:58:31.726Z,7.10
2023-02-18T19:01:03.354Z,7.06
2023-02-18T19:03:30.782Z,7.03
2023-02-18T19:05:58.040Z,6.98
2023-02-18T19:08:24.953Z,6.96
2023-02-18T19:10:56.836Z,6.98
2023-02-18T19:13:32.170Z,6.96
2023-02-18T19:16:07.456Z,6.90
2023-02-18T19:18:34.683Z,6.95
2023-02-18T19:21:05.260Z,6.93
2023-02-18T19:23:32.803Z,6.94
2023-02-18T19:25:59.825Z,7.05
2023-02-18T19:28:27.359Z,7.12
2023-02-18T19:30:54.430Z,7.21
2023-02-18T19:33:21.435Z,7.28
2023-02-18T19:35:48.015Z,7.32
2023-02-18T19:38:17.049Z,7.36
2023-02-18T19:40:45.835Z,7.35
2023-02-18T19:43:12.886Z,7.41
2023-02-18T19:45:44.601Z,7.41
2023-02-18T19:48:12.388Z,7.42
2023-02-18T19:50:40.664Z,7.34
2023-02-18T19:53:07.656Z,7.30
2023-02-18T19:55:34.283Z,7.28
2023-02-18T19:58:00.921Z,7.27
2023-02-18T20:00:27.620Z,7.27
2023-02-18T20:02:54.849Z,7.24
2023-02-18T20:05:21.551Z,7.21
2023-02-18T20:07:48.404Z,7.20
2023-02-18T20:10:20.067Z,7.22
2023-02-18T20:12:52.243Z,7.16
2023-02-18T20:15:19.202Z,7.09
2023-02-18T20:17:45.732Z,7.02
2023-02-18T20:20:12.596Z,7.08
2023-02-18T20:22:39.190Z,7.06
2023-02-18T20:25:06.199Z,7.07
2023-02-18T20:27:33.276Z,7.02
2023-02-18T20:29:59.884Z,6.99
2023-02-18T20:32:26.663Z,6.92
2023-02-18T20:34:53.880Z,6.88
2023-02-18T20:37:20.594Z,6.88
2023-02-18T20:39:47.283Z,6.70
2023-02-18T20:42:16.587Z,6.79
2023-02-18T20:44:44.286Z,6.71
2023-02-18T20:47:13.653Z,6.66
2023-02-18T20:49:40.654Z,6.61
2023-02-18T20:52:08.419Z,6.53
2023-02-18T20:54:35.138Z,6.51
2023-02-18T20:57:02.003Z,6.46
2023-02-18T20:59:29.837Z,6.37
2023-02-18T21:01:57.269Z,6.35
2023-02-18T21:04:23.875Z,6.31
2023-02-18T21:06:50.892Z,6.24
2023-02-18T21:09:18.125Z,6.30
2023-02-18T21:11:44.810Z,6.25
2023-02-18T21:14:12.404Z,6.24
2023-02-18T21:16:39.215Z,6.23
2023-02-18T21:19:12.748Z,6.19
2023-02-18T21:21:39.408Z,6.17
2023-02-18T21:24:06.323Z,6.14
2023-02-18T21:26:38.399Z,6.11
2023-02-18T21:29:07.346Z,6.08
2023-02-18T21:31:39.947Z,6.06
2023-02-18T21:34:10.182Z,6.04
2023-02-18T21:36:36.814Z,6.00
2023-02-18T21:39:09.161Z,5.98
2023-02-18T21:41:39.818Z,6.00
2023-02-18T21:44:08.081Z,5.94
2023-02-18T21:46:36.971Z,5.94
2023-02-18T21:49:05.878Z,5.91
2023-02-18T21:51:54.224Z,5.88
2023-02-18T21:54:33.831Z,5.82
2023-02-18T21:57:04.279Z,5.81
2023-02-18T21:59:32.882Z,5.66
2023-02-18T22:02:00.878Z,5.75
2023-02-18T22:04:29.859Z,5.71
2023-02-18T22:06:56.908Z,5.72
2023-02-18T22:09:23.547Z,5.70
2023-02-18T22:11:50.557Z,5.72
2023-02-18T22:14:17.369Z,5.72
2023-02-18T22:16:44.298Z,5.72
2023-02-18T22:19:12.548Z,5.81
2023-02-18T22:21:39.931Z,5.79
2023-02-18T22:24:07.478Z,5.83
2023-02-18T22:26:34.388Z,5.79
2023-02-18T22:29:01.417Z,5.82
2023-02-18T22:31:30.208Z,5.80
2023-02-18T22:33:58.365Z,5.78
2023-02-18T22:36:26.441Z,5.77
2023-02-18T22:38:53.838Z,5.76
2023-02-18T22:41:23.300Z,5.76
2023-02-18T22:43:57.117Z,5.78
2023-02-18T22:46:24.762Z,5.73
2023-02-18T22:48:52.104Z,5.69
2023-02-18T22:51:19.899Z,5.72
2023-02-18T22:53:46.662Z,5.68
2023-02-18T22:56:16.167Z,5.72
2023-02-18T22:58:44.387Z,5.73
2023-02-18T23:01:23.075Z,5.73
2023-02-18T23:03:50.963Z,5.74
2023-02-18T23:06:19.270Z,5.57
2023-02-18T23:08:47.477Z,5.58
2023-02-18T23:11:21.008Z,5.66
2023-02-18T23:14:07.029Z,5.69
2023-02-18T23:16:54.816Z,5.66
2023-02-18T23:19:22.384Z,5.65
2023-02-18T23:21:48.980Z,5.65
2023-02-18T23:24:15.936Z,5.71
2023-02-18T23:26:42.695Z,5.71
2023-02-18T23:29:09.495Z,5.75
2023-02-18T23:31:38.993Z,5.72
2023-02-18T23:34:07.953Z,5.75
2023-02-18T23:36:35.997Z,5.79
2023-02-18T23:39:08.243Z,5.89
2023-02-18T23:41:35.927Z,6.04
2023-02-18T23:44:06.742Z,6.14
2023-02-18T23:46:34.516Z,6.21
2023-02-18T23:49:01.656Z,6.25
2023-02-18T23:51:29.828Z,6.32
2023-02-18T23:53:56.955Z,6.44
2023-02-18T23:56:25.806Z,6.53
2023-02-18T23:58:57.659Z,6.59
